Restinga Seca, Brazil
Current Conditions -  °F | °C
As of 5:00 AM on Monday 22 Dec 2014 (Local Time) from SBSM Reporting Station
Broken Clouds Broken Clouds  
Wind Chill: 63°   Ceiling: 2000
Heat Index: 63°   Visibility: 6mi
Dew Point: 57°   Wind: 3mph
Humidity: 82%   Direction: 210°SSW
Pressure: 29.88"   Gusts: NA
Location:  29.81°S, 53.37°W
Report Text: SBSM 220700Z 21003KT 9999 BKN020 17/14 Q1012
Loading
Personal Weather Stations






























Interactive Weather Map New forecast layout! Learn more

10-Day Weather Forecast

Advertisements
Track Severe Weather on mobile